Kezdőlap
METAR-TAF:

METAR-TAF

Repülőterek :

Thule, Grönland

földrajzi szélesség: 76-32N, földrajzi hosszúság: 068-42W, magasság: 77 m

Jelenlegi meteorológiai megfigyelések

A jelentés 1 órával és 4 perccel ezelõtt készült, 18:56 UTC
Keleti szél 11 kt
Hőmérséklet -26°C
Páratartalom 76%
Légköri nyomás 1000 hPa
Látótávolság 10 km, vagy több
Derült ég

METAR: BGTL 191856Z AUTO 10011KT 9999 CLR M26/M29 A2952 RMK AO2 SLP990 T12561287 TSNO $

Idő: 16:00 (20:00 UTC)

Előrejelzés

A jelentés 2 órával és 0 perccel ezelõtt készült, 18:00 UTC
Az előrejelzés 19-én 18 óra UTC és 20-én 24 óra UTC között érvényes
Keleti szél 9 kt
Látótávolság: 2010 m
Derült ég

TAF: BGTL 191800Z 1918/2024 10009KT 9999 SKC QNH2923INS TXM25/1920Z TNM30/2013Z LAST NO AMDS AFT 1920 NEXT 2010

Meteorológiai megfigyelések és előrejelzések több, mint 4000 repülőtéren (METAR és TAF jelentéseket).

A térképen piros és sárga pontok jelzik az elérhető meteorológiai állomásokat.

Mozgassa az egeret a pont fölött, hogy megjelenjen az állomás neve.

Azután kattintson az időjárási megfigyelések és előrejelzések megtekintéséhez.

A térkép megváltoztatása: kattintson a fekete keresztel jelölt zöld gombra ráközelítéshez, a vonallal jelölt zöld gombra távolításhoz, vagy a zöld nyilakra a szomszédos térképek eléréséhez.


METAR-TAF: